Time;durP1;ratioP1;P1;durP2;ratioP2;P2;SDS_P1;SDS_P2;PMS_P1;PMS_P2;Temp;Humidity;BMP_temperature;BMP_pressure;BME280_temperature;BME280_humidity;BME280_pressure;Samples;Min_cycle;Max_cycle;Signal;HPM_P1;HPM_P2
2023/06/25 00:01:19;;;;;;;5.95;5.15;;;;;;;;;;7300161;19;140400;-73
2023/06/25 00:03:46;;;;;;;6.22;4.63;;;;;;;;;;7300402;19;140547;-73
2023/06/25 00:06:14;;;;;;;5.63;4.95;;;;;;;;;;7298904;19;141139;-72
2023/06/25 00:08:41;;;;;;;7.47;5.53;;;;;;;;;;7300454;19;141834;-72
2023/06/25 00:11:08;;;;;;;7.22;5.30;;;;;;;;;;7300559;19;140990;-73
2023/06/25 00:13:35;;;;;;;5.68;5.05;;;;;;;;;;7299882;19;140489;-73
2023/06/25 00:16:02;;;;;;;6.35;5.18;;;;;;;;;;7299684;19;141271;-73
2023/06/25 00:18:29;;;;;;;5.93;5.13;;;;;;;;;;7299013;19;140780;-73
2023/06/25 00:20:57;;;;;;;6.60;5.00;;;;;;;;;;7300775;19;140441;-72
2023/06/25 00:23:24;;;;;;;6.55;5.18;;;;;;;;;;7300473;19;140492;-73
2023/06/25 00:25:51;;;;;;;5.93;4.93;;;;;;;;;;7302413;19;141742;-73
2023/06/25 00:28:18;;;;;;;5.63;5.07;;;;;;;;;;7305717;19;141999;-73
2023/06/25 00:30:46;;;;;;;6.47;5.18;;;;;;;;;;7306575;19;140525;-73
2023/06/25 00:33:13;;;;;;;5.97;5.05;;;;;;;;;;7306711;19;141413;-73
2023/06/25 00:35:55;;;;;;;7.30;5.60;;;;;;;;;;7307001;19;141157;-73
2023/06/25 00:38:22;;;;;;;7.00;4.93;;;;;;;;;;7306599;19;142801;-73
2023/06/25 00:40:52;;;;;;;7.28;5.18;;;;;;;;;;7306639;19;141683;-73
2023/06/25 00:43:20;;;;;;;5.63;4.80;;;;;;;;;;7305380;19;141319;-73
2023/06/25 00:45:48;;;;;;;6.35;5.13;;;;;;;;;;7306166;19;140694;-73
2023/06/25 00:48:15;;;;;;;7.30;5.20;;;;;;;;;;7305007;19;142205;-73
2023/06/25 00:50:42;;;;;;;6.60;4.90;;;;;;;;;;7307047;19;140799;-73
2023/06/25 00:53:09;;;;;;;5.85;4.95;;;;;;;;;;7306774;19;140540;-72
2023/06/25 00:55:37;;;;;;;5.95;4.80;;;;;;;;;;7306681;19;141112;-73
2023/06/25 00:58:04;;;;;;;5.47;4.95;;;;;;;;;;7305887;19;140750;-72
2023/06/25 01:00:33;;;;;;;5.60;5.00;;;;;;;;;;7305564;19;141043;-73
2023/06/25 01:03:07;;;;;;;6.28;4.68;;;;;;;;;;7305723;19;140568;-73
2023/06/25 01:05:39;;;;;;;6.35;5.05;;;;;;;;;;7307700;19;141355;-73
2023/06/25 01:08:08;;;;;;;5.78;5.13;;;;;;;;;;7305415;19;142593;-73
2023/06/25 01:10:35;;;;;;;5.85;5.22;;;;;;;;;;7306150;19;140644;-73
2023/06/25 01:13:03;;;;;;;5.50;5.00;;;;;;;;;;7305635;19;140568;-73
2023/06/25 01:15:30;;;;;;;5.82;4.72;;;;;;;;;;7306194;19;142037;-73
2023/06/25 01:17:59;;;;;;;6.35;5.30;;;;;;;;;;7304615;19;142126;-73
2023/06/25 01:20:29;;;;;;;5.93;5.32;;;;;;;;;;7305702;19;140463;-73
2023/06/25 01:22:56;;;;;;;6.23;5.10;;;;;;;;;;7306005;19;140337;-73
2023/06/25 01:25:23;;;;;;;5.13;4.60;;;;;;;;;;7305491;19;140977;-72
2023/06/25 01:27:50;;;;;;;5.40;4.88;;;;;;;;;;7305351;19;142737;-73
2023/06/25 01:30:20;;;;;;;5.60;4.60;;;;;;;;;;7305426;19;140544;-73
2023/06/25 01:32:47;;;;;;;6.45;4.70;;;;;;;;;;7304280;19;140416;-73
2023/06/25 01:35:15;;;;;;;5.22;4.72;;;;;;;;;;7305876;19;140430;-72
2023/06/25 01:37:42;;;;;;;6.45;4.93;;;;;;;;;;7301898;19;141962;-72
2023/06/25 01:40:10;;;;;;;5.38;4.70;;;;;;;;;;7305034;19;140583;-73
2023/06/25 01:42:37;;;;;;;5.32;4.63;;;;;;;;;;7303699;19;140538;-72
2023/06/25 01:45:04;;;;;;;5.55;4.93;;;;;;;;;;7303261;19;140964;-73
2023/06/25 01:47:34;;;;;;;6.60;4.70;;;;;;;;;;7303288;19;143135;-73
2023/06/25 01:50:01;;;;;;;5.80;4.55;;;;;;;;;;7304079;19;140419;-73
2023/06/25 01:52:29;;;;;;;5.75;5.05;;;;;;;;;;7302844;19;140497;-73
2023/06/25 01:54:56;;;;;;;5.95;4.68;;;;;;;;;;7303999;19;141585;-73
2023/06/25 01:57:22;;;;;;;5.45;4.85;;;;;;;;;;7301597;19;142064;-73
2023/06/25 01:59:49;;;;;;;5.82;4.88;;;;;;;;;;7303986;19;140504;-72
2023/06/25 02:02:16;;;;;;;5.82;5.10;;;;;;;;;;7302666;19;140418;-73
2023/06/25 02:04:43;;;;;;;5.57;4.95;;;;;;;;;;7303053;19;141211;-72
2023/06/25 02:07:11;;;;;;;7.22;5.30;;;;;;;;;;7303906;19;141403;-72
2023/06/25 02:09:39;;;;;;;5.65;5.00;;;;;;;;;;7303966;19;140548;-73
2023/06/25 02:12:06;;;;;;;6.05;4.63;;;;;;;;;;7303424;19;140414;-73
2023/06/25 02:14:33;;;;;;;5.40;4.78;;;;;;;;;;7303504;19;142406;-72
2023/06/25 02:17:00;;;;;;;6.65;4.70;;;;;;;;;;7302471;19;142012;-73
2023/06/25 02:19:27;;;;;;;5.65;5.03;;;;;;;;;;7302478;19;140419;-72
2023/06/25 02:21:54;;;;;;;4.93;4.43;;;;;;;;;;7301860;19;140776;-73
2023/06/25 02:24:22;;;;;;;6.28;4.90;;;;;;;;;;7302807;19;141268;-72
2023/06/25 02:26:49;;;;;;;6.30;4.80;;;;;;;;;;7302794;19;141312;-73
2023/06/25 02:29:16;;;;;;;5.57;4.97;;;;;;;;;;7303545;19;140424;-72
2023/06/25 02:31:43;;;;;;;6.78;5.28;;;;;;;;;;7303077;19;140596;-72
2023/06/25 02:34:11;;;;;;;6.32;5.53;;;;;;;;;;7302384;19;141211;-72
2023/06/25 02:36:38;;;;;;;7.63;5.10;;;;;;;;;;7302492;19;142945;-72
2023/06/25 02:39:05;;;;;;;6.43;4.72;;;;;;;;;;7302663;19;140581;-72
2023/06/25 02:41:32;;;;;;;6.80;5.00;;;;;;;;;;7303019;19;140700;-72
2023/06/25 02:43:59;;;;;;;5.88;5.07;;;;;;;;;;7302356;19;141207;-72
2023/06/25 02:46:26;;;;;;;5.85;4.90;;;;;;;;;;7301724;19;142206;-73
2023/06/25 02:48:53;;;;;;;6.18;5.47;;;;;;;;;;7299218;19;140747;-73
2023/06/25 02:51:20;;;;;;;7.22;5.20;;;;;;;;;;7303112;19;140691;-72
2023/06/25 02:53:47;;;;;;;6.45;5.18;;;;;;;;;;7301861;19;140812;-73
2023/06/25 02:56:14;;;;;;;6.65;5.13;;;;;;;;;;7301276;19;141618;-73
2023/06/25 02:58:41;;;;;;;5.93;5.10;;;;;;;;;;7302405;19;140757;-73
2023/06/25 03:01:08;;;;;;;6.40;5.30;;;;;;;;;;7301509;19;140444;-73
2023/06/25 03:03:35;;;;;;;6.20;5.18;;;;;;;;;;7301525;19;140909;-73
2023/06/25 03:06:03;;;;;;;6.10;5.50;;;;;;;;;;7301670;19;142598;-73
2023/06/25 03:08:30;;;;;;;6.72;4.93;;;;;;;;;;7301431;19;140535;-73
2023/06/25 03:10:57;;;;;;;5.68;4.90;;;;;;;;;;7302196;19;140390;-74
2023/06/25 03:13:24;;;;;;;6.07;4.95;;;;;;;;;;7301687;19;141951;-73
2023/06/25 03:15:51;;;;;;;5.90;5.18;;;;;;;;;;7301183;19;141580;-73
2023/06/25 03:18:18;;;;;;;6.35;5.13;;;;;;;;;;7301896;19;141167;-73
2023/06/25 03:20:45;;;;;;;5.68;5.07;;;;;;;;;;7301165;19;140466;-73
2023/06/25 03:23:12;;;;;;;6.22;5.15;;;;;;;;;;7301489;19;141159;-73
2023/06/25 03:25:39;;;;;;;5.55;4.90;;;;;;;;;;7301721;19;140801;-74
2023/06/25 03:28:06;;;;;;;5.78;4.90;;;;;;;;;;7299875;19;140894;-74
2023/06/25 03:30:33;;;;;;;5.75;5.07;;;;;;;;;;7301136;19;140575;-74
2023/06/25 03:33:00;;;;;;;5.45;4.82;;;;;;;;;;7300310;19;141184;-73
2023/06/25 03:35:27;;;;;;;5.88;5.28;;;;;;;;;;7300876;19;142140;-73
2023/06/25 03:37:55;;;;;;;7.20;4.97;;;;;;;;;;7301471;19;140749;-73
2023/06/25 03:40:22;;;;;;;6.38;5.15;;;;;;;;;;7299400;19;141047;-73
2023/06/25 03:42:49;;;;;;;6.70;5.40;;;;;;;;;;7301349;19;140630;-73
2023/06/25 03:45:16;;;;;;;5.90;5.05;;;;;;;;;;7300121;19;142844;-73
2023/06/25 03:47:43;;;;;;;6.40;5.53;;;;;;;;;;7299968;19;140559;-73
2023/06/25 03:50:10;;;;;;;6.13;5.25;;;;;;;;;;7300614;19;140559;-74
2023/06/25 03:52:37;;;;;;;7.30;5.60;;;;;;;;;;7300483;19;141869;-73
2023/06/25 03:55:04;;;;;;;6.65;5.45;;;;;;;;;;7300268;19;142679;-73
2023/06/25 03:57:31;;;;;;;6.93;5.85;;;;;;;;;;7300443;19;140407;-74
2023/06/25 03:59:58;;;;;;;7.32;5.72;;;;;;;;;;7299791;19;140565;-73
2023/06/25 04:02:25;;;;;;;5.93;5.20;;;;;;;;;;7300709;19;141797;-74
2023/06/25 04:04:53;;;;;;;6.28;5.50;;;;;;;;;;7303262;19;141680;-73
2023/06/25 04:07:20;;;;;;;7.55;5.82;;;;;;;;;;7300592;19;140581;-73
2023/06/25 04:09:47;;;;;;;6.07;5.32;;;;;;;;;;7300930;19;140465;-73
2023/06/25 04:12:14;;;;;;;6.70;5.63;;;;;;;;;;7299513;19;141708;-73
2023/06/25 04:14:41;;;;;;;6.97;5.53;;;;;;;;;;7299753;19;143065;-73
2023/06/25 04:17:11;;;;;;;6.43;5.10;;;;;;;;;;7300103;19;140526;-74
2023/06/25 04:19:38;;;;;;;5.88;5.22;;;;;;;;;;7299644;19;140519;-74
2023/06/25 04:22:05;;;;;;;6.20;5.18;;;;;;;;;;7299740;19;141001;-78
2023/06/25 04:24:32;;;;;;;6.45;5.47;;;;;;;;;;7297461;19;142230;-77
2023/06/25 04:26:59;;;;;;;6.15;5.35;;;;;;;;;;7300009;19;140460;-77
2023/06/25 04:29:27;;;;;;;7.93;6.68;;;;;;;;;;7297395;19;140449;-76
2023/06/25 04:31:53;;;;;;;10.20;6.13;;;;;;;;;;7299423;19;141165;-77
2023/06/25 04:34:21;;;;;;;7.45;5.93;;;;;;;;;;7298572;19;140795;-75
2023/06/25 04:36:48;;;;;;;7.70;6.45;;;;;;;;;;7299410;19;140774;-87
2023/06/25 04:39:15;;;;;;;8.30;6.18;;;;;;;;;;7297426;19;140764;-78
2023/06/25 04:41:43;;;;;;;8.02;5.78;;;;;;;;;;7297709;19;141807;-78
2023/06/25 04:44:10;;;;;;;8.30;5.97;;;;;;;;;;7297100;19;141863;-79
2023/06/25 04:46:37;;;;;;;8.85;6.45;;;;;;;;;;7298794;19;140766;-82
2023/06/25 04:49:05;;;;;;;8.52;5.78;;;;;;;;;;7298278;19;140751;-85
2023/06/25 04:51:32;;;;;;;10.23;5.95;;;;;;;;;;7297757;19;142583;-84
2023/06/25 04:53:59;;;;;;;7.03;5.93;;;;;;;;;;7299474;19;142248;-84
2023/06/25 04:56:26;;;;;;;7.22;5.80;;;;;;;;;;7297997;19;140614;-82
2023/06/25 04:58:53;;;;;;;7.50;5.93;;;;;;;;;;7299728;19;140408;-88
2023/06/25 05:01:20;;;;;;;7.78;5.90;;;;;;;;;;7298252;19;141220;-81
2023/06/25 05:03:48;;;;;;;7.25;5.88;;;;;;;;;;7298383;19;140770;-79
2023/06/25 05:06:15;;;;;;;8.15;6.15;;;;;;;;;;7298580;19;140379;-77
2023/06/25 05:08:42;;;;;;;7.43;6.10;;;;;;;;;;7298677;19;140593;-78
2023/06/25 05:11:10;;;;;;;8.20;6.43;;;;;;;;;;7298877;19;140557;-79
2023/06/25 05:13:37;;;;;;;8.68;6.45;;;;;;;;;;7304054;19;142182;-78
2023/06/25 05:16:04;;;;;;;9.88;6.88;;;;;;;;;;7305338;19;140623;-78
2023/06/25 05:18:31;;;;;;;9.32;6.47;;;;;;;;;;7304530;19;140898;-78
2023/06/25 05:20:58;;;;;;;12.23;7.82;;;;;;;;;;7303179;19;141741;-79
2023/06/25 05:23:25;;;;;;;10.65;6.82;;;;;;;;;;7304111;19;140977;-78
2023/06/25 05:25:53;;;;;;;9.77;6.85;;;;;;;;;;7304033;19;140588;-78
2023/06/25 05:28:20;;;;;;;9.93;7.10;;;;;;;;;;7305258;19;140647;-78
2023/06/25 05:30:47;;;;;;;9.68;6.78;;;;;;;;;;7303593;19;142758;-78
2023/06/25 05:33:15;;;;;;;9.80;6.72;;;;;;;;;;7304473;19;143240;-78
2023/06/25 05:35:42;;;;;;;10.70;7.40;;;;;;;;;;7303899;19;140574;-82
2023/06/25 05:38:09;;;;;;;9.57;6.95;;;;;;;;;;7303439;19;140421;-82
2023/06/25 05:40:37;;;;;;;9.98;6.72;;;;;;;;;;7303164;19;140911;-84
2023/06/25 05:43:04;;;;;;;12.75;6.93;;;;;;;;;;7302623;19;142681;-84
2023/06/25 05:45:32;;;;;;;12.75;6.97;;;;;;;;;;7303265;19;140695;-80
2023/06/25 05:47:59;;;;;;;8.20;6.55;;;;;;;;;;7304344;19;140384;-80
2023/06/25 05:50:26;;;;;;;8.40;6.40;;;;;;;;;;7304162;19;141745;-80
2023/06/25 05:52:53;;;;;;;8.32;6.65;;;;;;;;;;7304530;19;142974;-80
2023/06/25 05:55:20;;;;;;;8.60;6.55;;;;;;;;;;7304016;19;140758;-81
2023/06/25 05:57:50;;;;;;;10.10;6.75;;;;;;;;;;7303958;19;140564;-81
2023/06/25 06:00:17;;;;;;;9.10;6.63;;;;;;;;;;7302268;19;142368;-79
2023/06/25 06:02:45;;;;;;;8.93;6.47;;;;;;;;;;7303862;19;143550;-82
2023/06/25 06:05:12;;;;;;;10.52;7.10;;;;;;;;;;7304061;19;140637;-82
2023/06/25 06:07:39;;;;;;;14.75;8.65;;;;;;;;;;7303272;19;140635;-78
2023/06/25 06:10:06;;;;;;;15.43;9.40;;;;;;;;;;7303242;19;141113;-80
2023/06/25 06:12:33;;;;;;;19.90;10.85;;;;;;;;;;7303211;19;142111;-78
2023/06/25 06:15:00;;;;;;;18.67;11.68;;;;;;;;;;7303477;19;141078;-79
2023/06/25 06:17:27;;;;;;;20.48;11.27;;;;;;;;;;7303503;19;140498;-87
2023/06/25 06:19:55;;;;;;;19.13;11.00;;;;;;;;;;7303890;19;141606;-90
2023/06/25 06:22:22;;;;;;;18.00;10.75;;;;;;;;;;7303723;19;142091;-83
2023/06/25 06:24:49;;;;;;;18.17;10.13;;;;;;;;;;7301717;19;140669;-82
2023/06/25 06:27:17;;;;;;;16.38;10.20;;;;;;;;;;7301417;19;140920;-82
2023/06/25 06:29:44;;;;;;;13.98;9.80;;;;;;;;;;7302013;19;141383;-82
2023/06/25 06:32:11;;;;;;;18.95;10.77;;;;;;;;;;7301788;19;141937;-83
2023/06/25 06:34:38;;;;;;;14.95;10.07;;;;;;;;;;7300342;19;140636;-83
2023/06/25 06:37:05;;;;;;;16.30;9.43;;;;;;;;;;7301145;19;140724;-84
2023/06/25 06:39:33;;;;;;;15.73;9.55;;;;;;;;;;7302844;19;140659;-93
2023/06/25 06:42:00;;;;;;;14.98;10.65;;;;;;;;;;7301505;19;141507;-82
2023/06/25 06:44:27;;;;;;;18.17;12.52;;;;;;;;;;7301097;19;140875;-84
2023/06/25 06:46:54;;;;;;;21.02;13.23;;;;;;;;;;7302430;19;140770;-85
2023/06/25 06:49:21;;;;;;;18.90;12.40;;;;;;;;;;7300205;19;142092;-79
2023/06/25 06:51:49;;;;;;;21.92;13.23;;;;;;;;;;7302632;19;141783;-78
2023/06/25 06:54:16;;;;;;;21.10;12.52;;;;;;;;;;7301603;19;140710;-77
2023/06/25 06:56:46;;;;;;;28.15;13.88;;;;;;;;;;7301260;19;140584;-82
2023/06/25 06:59:13;;;;;;;20.75;12.50;;;;;;;;;;7300195;19;142176;-77
2023/06/25 07:01:41;;;;;;;23.48;13.07;;;;;;;;;;7302662;19;141205;-77
2023/06/25 07:04:08;;;;;;;20.10;13.32;;;;;;;;;;7301878;19;140636;-78
2023/06/25 07:06:35;;;;;;;22.70;12.82;;;;;;;;;;7300212;19;140910;-79
2023/06/25 07:09:03;;;;;;;21.35;13.32;;;;;;;;;;7302889;19;142821;-87
2023/06/25 07:11:30;;;;;;;20.58;13.80;;;;;;;;;;7301909;19;142073;-79
2023/06/25 07:13:58;;;;;;;20.88;13.43;;;;;;;;;;7302114;19;140687;-78
2023/06/25 07:16:25;;;;;;;19.63;12.38;;;;;;;;;;7300431;19;140693;-79
2023/06/25 07:18:52;;;;;;;21.65;13.27;;;;;;;;;;7300691;19;141305;-79
2023/06/25 07:21:19;;;;;;;22.15;13.80;;;;;;;;;;7300679;19;142037;-79
2023/06/25 07:23:46;;;;;;;19.60;13.15;;;;;;;;;;7301663;19;140603;-79
2023/06/25 07:26:13;;;;;;;20.00;13.23;;;;;;;;;;7302069;19;140607;-79
2023/06/25 07:28:40;;;;;;;20.85;13.27;;;;;;;;;;7300792;19;140997;-79
2023/06/25 07:31:07;;;;;;;21.52;13.82;;;;;;;;;;7299454;19;142480;-82
2023/06/25 07:33:34;;;;;;;19.98;12.82;;;;;;;;;;7300876;19;140495;-81
2023/06/25 07:36:01;;;;;;;19.20;12.85;;;;;;;;;;7299501;19;140371;-81
2023/06/25 07:38:28;;;;;;;16.92;12.45;;;;;;;;;;7301247;19;140489;-80
2023/06/25 07:40:55;;;;;;;20.83;13.00;;;;;;;;;;7300180;19;142614;-79
2023/06/25 07:43:22;;;;;;;20.77;13.07;;;;;;;;;;7300636;19;140619;-81
2023/06/25 07:45:49;;;;;;;19.63;12.77;;;;;;;;;;7300430;19;140494;-81
2023/06/25 07:48:17;;;;;;;19.80;13.23;;;;;;;;;;7299806;19;141700;-80
2023/06/25 07:50:44;;;;;;;19.27;12.95;;;;;;;;;;7299732;19;141046;-83
2023/06/25 07:53:11;;;;;;;20.85;13.27;;;;;;;;;;7300706;19;140509;-80
2023/06/25 07:55:40;;;;;;;18.65;13.30;;;;;;;;;;7300334;19;140595;-80
2023/06/25 07:58:55;;;;;;;;;;;;;;;;;;;;;
2023/06/25 08:01:46;;;;;;;18.95;12.93;;;;;;;;;;7295335;19;140834;-79
2023/06/25 08:04:13;;;;;;;18.17;12.63;;;;;;;;;;7300889;19;140593;-79
2023/06/25 08:06:40;;;;;;;19.13;12.07;;;;;;;;;;7301453;19;140604;-80
2023/06/25 08:09:07;;;;;;;18.42;11.20;;;;;;;;;;7301835;19;142076;-78
2023/06/25 08:11:34;;;;;;;15.50;10.63;;;;;;;;;;7300824;19;142069;-77
2023/06/25 08:14:01;;;;;;;17.25;10.75;;;;;;;;;;7301641;19;140508;-78
2023/06/25 08:16:29;;;;;;;18.13;11.48;;;;;;;;;;7301329;19;140704;-78
2023/06/25 08:18:56;;;;;;;17.05;10.77;;;;;;;;;;7300174;19;140619;-78
2023/06/25 08:21:24;;;;;;;17.40;10.65;;;;;;;;;;7300481;19;141884;-78
2023/06/25 08:23:51;;;;;;;17.10;10.30;;;;;;;;;;7300125;19;140521;-77
2023/06/25 08:26:18;;;;;;;14.95;10.40;;;;;;;;;;7299311;19;140782;-76
2023/06/25 08:28:45;;;;;;;18.40;10.10;;;;;;;;;;7300241;19;141631;-78
2023/06/25 08:31:12;;;;;;;18.35;10.23;;;;;;;;;;7299084;19;142987;-78
2023/06/25 08:33:39;;;;;;;17.83;10.30;;;;;;;;;;7299687;19;141318;-79
2023/06/25 08:36:06;;;;;;;14.52;9.63;;;;;;;;;;7299869;19;140703;-77
2023/06/25 08:38:35;;;;;;;17.55;10.23;;;;;;;;;;7300372;19;140879;-78
2023/06/25 08:41:03;;;;;;;15.25;9.27;;;;;;;;;;7299532;19;141464;-82
2023/06/25 08:43:30;;;;;;;17.92;9.82;;;;;;;;;;7300086;19;140577;-87
2023/06/25 08:45:57;;;;;;;17.85;9.57;;;;;;;;;;7298365;19;140531;-85
2023/06/25 08:48:27;;;;;;;23.10;10.43;;;;;;;;;;7303163;19;141206;-84
2023/06/25 08:50:57;;;;;;;18.30;9.43;;;;;;;;;;7305915;19;141430;-81
2023/06/25 08:53:25;;;;;;;17.08;9.00;;;;;;;;;;7307283;19;140489;-83
2023/06/25 08:56:00;;;;;;;19.85;10.40;;;;;;;;;;7306654;19;140502;-82
2023/06/25 08:58:29;;;;;;;15.75;8.57;;;;;;;;;;7304917;19;141101;-83
2023/06/25 09:00:56;;;;;;;15.50;8.93;;;;;;;;;;7305415;19;141889;-82
2023/06/25 09:03:24;;;;;;;15.35;8.95;;;;;;;;;;7306170;19;140524;-82
2023/06/25 09:05:52;;;;;;;17.13;9.07;;;;;;;;;;7304580;19;140538;-83
2023/06/25 09:08:20;;;;;;;14.85;8.23;;;;;;;;;;7304621;19;141248;-83
2023/06/25 09:10:52;;;;;;;17.02;7.97;;;;;;;;;;7305858;19;142830;-83
2023/06/25 09:13:22;;;;;;;17.27;9.07;;;;;;;;;;7306059;19;140738;-83
2023/06/25 09:15:50;;;;;;;14.30;7.78;;;;;;;;;;7305917;19;140651;-84
2023/06/25 09:18:21;;;;;;;14.60;8.05;;;;;;;;;;7305765;19;141693;-84
2023/06/25 09:20:49;;;;;;;13.10;7.25;;;;;;;;;;7305088;19;141780;-84
2023/06/25 09:23:21;;;;;;;14.10;7.18;;;;;;;;;;7304584;19;140597;-84
2023/06/25 09:25:51;;;;;;;14.15;7.20;;;;;;;;;;7304602;19;140605;-85
2023/06/25 09:28:19;;;;;;;11.50;7.35;;;;;;;;;;7303776;19;141304;-84
2023/06/25 09:30:46;;;;;;;13.18;7.45;;;;;;;;;;7305597;19;142492;-84
2023/06/25 09:33:15;;;;;;;10.65;7.05;;;;;;;;;;7305092;19;140644;-84
2023/06/25 09:35:42;;;;;;;13.00;6.70;;;;;;;;;;7305177;19;140847;-85
2023/06/25 09:38:10;;;;;;;11.45;6.47;;;;;;;;;;7303709;19;141897;-84
2023/06/25 09:40:37;;;;;;;12.55;6.93;;;;;;;;;;7305243;19;141480;-84
2023/06/25 09:43:18;;;;;;;13.27;7.05;;;;;;;;;;7304574;19;140502;-84
2023/06/25 09:45:46;;;;;;;12.77;6.95;;;;;;;;;;7306220;19;140717;-84
2023/06/25 09:48:14;;;;;;;14.18;7.38;;;;;;;;;;7302870;19;141067;-84
2023/06/25 09:50:44;;;;;;;14.52;7.05;;;;;;;;;;7304535;19;142743;-84
2023/06/25 09:53:17;;;;;;;13.55;7.43;;;;;;;;;;7305225;19;140569;-85
2023/06/25 09:55:45;;;;;;;11.93;7.05;;;;;;;;;;7304341;19;140534;-84
2023/06/25 09:58:12;;;;;;;13.00;7.03;;;;;;;;;;7303447;19;141259;-84
2023/06/25 10:00:39;;;;;;;11.07;7.43;;;;;;;;;;7303447;19;142036;-83
2023/06/25 10:03:07;;;;;;;11.77;6.88;;;;;;;;;;7301122;19;140923;-85
2023/06/25 10:05:35;;;;;;;12.07;7.22;;;;;;;;;;7302145;19;145423;-84
2023/06/25 10:08:03;;;;;;;14.45;7.40;;;;;;;;;;7301089;19;140785;-84
2023/06/25 10:10:35;;;;;;;11.60;7.45;;;;;;;;;;7301038;19;142115;-84
2023/06/25 10:13:06;;;;;;;8.70;6.97;;;;;;;;;;7299829;19;140779;-84
2023/06/25 10:15:34;;;;;;;15.20;8.10;;;;;;;;;;7302716;19;140534;-84
2023/06/25 10:18:04;;;;;;;13.15;6.97;;;;;;;;;;7303148;19;140498;-79
2023/06/25 10:20:32;;;;;;;12.73;7.95;;;;;;;;;;7303206;19;141910;-82
2023/06/25 10:23:09;;;;;;;11.65;7.20;;;;;;;;;;7303766;19;140580;-83
2023/06/25 10:25:38;;;;;;;10.82;7.43;;;;;;;;;;7302316;19;142115;-81
2023/06/25 10:28:06;;;;;;;;;;;;;;;;;;7302380;19;141253;-78
2023/06/25 10:30:41;;;;;;;11.15;6.95;;;;;;;;;;7302030;19;151920;-77
2023/06/25 10:33:08;;;;;;;11.63;7.00;;;;;;;;;;7303207;19;140710;-77
2023/06/25 10:35:40;;;;;;;10.63;6.90;;;;;;;;;;7302689;19;140557;-76
2023/06/25 10:38:08;;;;;;;12.48;7.25;;;;;;;;;;7300113;19;140759;-77
2023/06/25 10:40:36;;;;;;;12.40;6.95;;;;;;;;;;7303116;19;142953;-76
2023/06/25 10:43:03;;;;;;;11.05;6.93;;;;;;;;;;7301833;19;140704;-75
2023/06/25 10:45:30;;;;;;;11.55;6.75;;;;;;;;;;7301489;19;140978;-76
2023/06/25 10:48:01;;;;;;;12.18;6.78;;;;;;;;;;7302297;19;141909;-75
2023/06/25 10:50:30;;;;;;;10.98;7.55;;;;;;;;;;7301649;19;142633;-76
2023/06/25 10:52:57;;;;;;;11.43;6.78;;;;;;;;;;7302571;19;140411;-75
2023/06/25 10:55:25;;;;;;;10.98;6.78;;;;;;;;;;7302516;19;141613;-76
2023/06/25 10:57:53;;;;;;;10.27;6.65;;;;;;;;;;7301125;19;141207;-77
2023/06/25 11:00:22;;;;;;;11.00;7.00;;;;;;;;;;7300182;19;142055;-75
2023/06/25 11:02:50;;;;;;;12.70;6.70;;;;;;;;;;7300344;19;140830;-76
2023/06/25 11:05:19;;;;;;;10.68;7.30;;;;;;;;;;7300746;19;140566;-76
2023/06/25 11:07:56;;;;;;;11.77;7.22;;;;;;;;;;7299985;19;141854;-74
2023/06/25 11:10:26;;;;;;;11.07;7.25;;;;;;;;;;7299101;19;141888;-78
2023/06/25 11:12:53;;;;;;;11.30;6.30;;;;;;;;;;7301492;19;143025;-75
2023/06/25 11:15:20;;;;;;;14.30;7.47;;;;;;;;;;7301376;19;140546;-75
2023/06/25 11:17:53;;;;;;;13.65;7.38;;;;;;;;;;7299811;19;140960;-76
2023/06/25 11:20:24;;;;;;;11.93;7.03;;;;;;;;;;7300206;19;142227;-75
2023/06/25 11:22:51;;;;;;;12.88;6.47;;;;;;;;;;7301632;19;140384;-79
2023/06/25 11:25:24;;;;;;;12.30;6.70;;;;;;;;;;7301051;19;140713;-75
2023/06/25 11:28:02;;;;;;;10.30;6.15;;;;;;;;;;7301274;19;141665;-75
2023/06/25 11:30:29;;;;;;;8.07;5.97;;;;;;;;;;7300854;19;142182;-75
2023/06/25 11:33:06;;;;;;;10.52;6.25;;;;;;;;;;7301142;19;140762;-74
2023/06/25 11:35:42;;;;;;;10.85;5.65;;;;;;;;;;7300751;19;140628;-74
2023/06/25 11:38:09;;;;;;;13.50;5.95;;;;;;;;;;7300887;19;141633;-75
2023/06/25 11:40:37;;;;;;;11.13;5.60;;;;;;;;;;7300418;19;140842;-75
2023/06/25 11:43:04;;;;;;;14.73;5.80;;;;;;;;;;7301125;19;140642;-75
2023/06/25 11:45:41;;;;;;;15.50;5.47;;;;;;;;;;7300883;19;140589;-75
2023/06/25 11:48:12;;;;;;;11.10;5.72;;;;;;;;;;7300340;19;140439;-75
2023/06/25 11:50:39;;;;;;;8.00;5.15;;;;;;;;;;7299887;19;141967;-75
2023/06/25 11:53:06;;;;;;;11.75;6.28;;;;;;;;;;7298752;19;140899;-75
2023/06/25 11:55:33;;;;;;;13.85;5.05;;;;;;;;;;7300674;19;140646;-76
2023/06/25 11:58:01;;;;;;;10.10;5.45;;;;;;;;;;7300787;19;141396;-76
2023/06/25 12:00:28;;;;;;;10.60;5.00;;;;;;;;;;7300011;19;142045;-75
2023/06/25 12:02:55;;;;;;;9.90;4.50;;;;;;;;;;7300440;19;140600;-76
2023/06/25 12:05:22;;;;;;;9.75;4.50;;;;;;;;;;7299830;19;141034;-75
2023/06/25 12:07:49;;;;;;;7.38;4.43;;;;;;;;;;7299952;19;140963;-75
2023/06/25 12:10:17;;;;;;;11.38;5.13;;;;;;;;;;7299588;19;141958;-76
2023/06/25 12:12:45;;;;;;;10.65;5.20;;;;;;;;;;7299762;19;140584;-75
2023/06/25 12:15:13;;;;;;;9.27;4.70;;;;;;;;;;7300061;19;141412;-75
2023/06/25 12:17:42;;;;;;;8.80;4.40;;;;;;;;;;7300119;19;141473;-76
2023/06/25 12:20:09;;;;;;;9.75;5.28;;;;;;;;;;7300199;19;141863;-76
2023/06/25 12:22:36;;;;;;;10.32;4.57;;;;;;;;;;7305412;19;140956;-76
2023/06/25 12:25:04;;;;;;;8.80;4.05;;;;;;;;;;7307418;19;140742;-75
2023/06/25 12:27:31;;;;;;;9.15;4.53;;;;;;;;;;7306907;19;141750;-74
2023/06/25 12:29:58;;;;;;;8.95;3.78;;;;;;;;;;7306297;19;141869;-74
2023/06/25 12:32:25;;;;;;;6.30;3.90;;;;;;;;;;7307178;19;140486;-75
2023/06/25 12:34:52;;;;;;;10.13;3.92;;;;;;;;;;7307040;19;140695;-74
2023/06/25 12:37:19;;;;;;;6.20;3.60;;;;;;;;;;7305385;19;141105;-74
2023/06/25 12:39:46;;;;;;;8.25;3.95;;;;;;;;;;7306225;19;141960;-74
2023/06/25 12:42:13;;;;;;;8.68;3.70;;;;;;;;;;7306082;19;140547;-75
2023/06/25 12:44:40;;;;;;;7.38;4.25;;;;;;;;;;7306652;19;140732;-75
2023/06/25 12:47:07;;;;;;;6.78;3.78;;;;;;;;;;7306496;19;140464;-74
2023/06/25 12:49:34;;;;;;;6.95;3.55;;;;;;;;;;7305774;19;142651;-74
2023/06/25 12:52:01;;;;;;;7.45;4.10;;;;;;;;;;7305761;19;140693;-74
2023/06/25 12:54:28;;;;;;;10.60;4.07;;;;;;;;;;7306819;19;140527;-74
2023/06/25 12:56:55;;;;;;;6.38;3.70;;;;;;;;;;7305436;19;141286;-74
2023/06/25 12:59:22;;;;;;;6.15;3.53;;;;;;;;;;7305731;19;142594;-75
2023/06/25 13:01:55;;;;;;;8.93;3.60;;;;;;;;;;7306153;19;140766;-74
2023/06/25 13:04:23;;;;;;;8.40;3.10;;;;;;;;;;7305541;19;140592;-74
2023/06/25 13:06:50;;;;;;;6.35;3.47;;;;;;;;;;7304810;19;141024;-74
2023/06/25 13:09:17;;;;;;;9.90;3.53;;;;;;;;;;7305404;19;141837;-74
2023/06/25 13:11:45;;;;;;;7.38;3.55;;;;;;;;;;7305509;19;140877;-75
2023/06/25 13:14:12;;;;;;;7.80;3.78;;;;;;;;;;7305692;19;140950;-75
2023/06/25 13:16:39;;;;;;;9.05;3.67;;;;;;;;;;7303733;19;142049;-75
2023/06/25 13:19:06;;;;;;;8.80;3.65;;;;;;;;;;7305412;19;141515;-74
2023/06/25 13:21:33;;;;;;;7.20;3.80;;;;;;;;;;7304906;19;140498;-74
2023/06/25 13:24:00;;;;;;;7.18;3.40;;;;;;;;;;7305793;19;140549;-74
2023/06/25 13:26:27;;;;;;;6.85;3.75;;;;;;;;;;7302653;19;141727;-74
2023/06/25 13:28:54;;;;;;;7.30;3.83;;;;;;;;;;7302883;19;141895;-76
2023/06/25 13:31:21;;;;;;;9.20;4.00;;;;;;;;;;7301517;19;140700;-75
2023/06/25 13:33:48;;;;;;;6.82;3.80;;;;;;;;;;7301689;19;140554;-76
2023/06/25 13:36:16;;;;;;;7.65;3.92;;;;;;;;;;7301857;19;141485;-75
2023/06/25 13:38:43;;;;;;;9.88;3.97;;;;;;;;;;7302175;19;142219;-76
2023/06/25 13:41:10;;;;;;;6.90;3.80;;;;;;;;;;7302970;19;140925;-75
2023/06/25 13:43:37;;;;;;;6.90;3.40;;;;;;;;;;7302951;19;140762;-76
2023/06/25 13:46:04;;;;;;;8.13;3.92;;;;;;;;;;7302251;19;141112;-76
2023/06/25 13:48:31;;;;;;;8.33;3.70;;;;;;;;;;7302646;19;142609;-76
2023/06/25 13:51:00;;;;;;;7.32;3.75;;;;;;;;;;7302262;19;140698;-77
2023/06/25 13:53:27;;;;;;;6.97;3.30;;;;;;;;;;7302329;19;141494;-75
2023/06/25 13:55:56;;;;;;;8.07;3.70;;;;;;;;;;7302300;19;141639;-75
2023/06/25 13:58:24;;;;;;;8.03;3.40;;;;;;;;;;7302022;19;142104;-76
2023/06/25 14:00:54;;;;;;;6.93;3.50;;;;;;;;;;7302125;19;141109;-76
2023/06/25 14:03:21;;;;;;;11.35;3.92;;;;;;;;;;7302785;19;140554;-76
2023/06/25 14:05:49;;;;;;;6.18;3.78;;;;;;;;;;7301051;19;141618;-78
2023/06/25 14:08:16;;;;;;;7.00;3.67;;;;;;;;;;7301373;19;142279;-80
2023/06/25 14:10:43;;;;;;;8.20;3.50;;;;;;;;;;7302307;19;140346;-80
2023/06/25 14:13:10;;;;;;;7.45;3.92;;;;;;;;;;7301093;19;140636;-87
2023/06/25 14:15:38;;;;;;;7.07;3.60;;;;;;;;;;7303975;19;140992;-82
2023/06/25 14:18:09;;;;;;;7.63;3.30;;;;;;;;;;7301444;19;141498;-80
2023/06/25 14:20:37;;;;;;;6.68;3.38;;;;;;;;;;7300883;19;140626;-80
2023/06/25 14:23:04;;;;;;;8.03;3.30;;;;;;;;;;7301124;19;140620;-80
2023/06/25 14:25:31;;;;;;;7.03;3.60;;;;;;;;;;7301667;19;140612;-80
2023/06/25 14:27:58;;;;;;;8.30;3.85;;;;;;;;;;7301211;19;141093;-80